Time,TemperatureF,DewpointF,PressureIn,WindDirection,WindDirectionDegrees,WindSpeedMPH,WindSpeedGustMPH,Humidity,HourlyPrecipIn,Conditions,Clouds,dailyrainin,SolarRadiationWatts/m^2,SoftwareType,DateUTC
2013-03-02 00:08:00,33.6,26.0,29.69,NE,40,3.0,9.0,74,0.00,,,0.00,0,weatherlink.com 1.10,2013-03-02 05:08:00,
2013-03-02 00:23:00,33.4,26.0,29.69,North,9,3.0,6.0,74,0.00,,,0.00,0,weatherlink.com 1.10,2013-03-02 05:23:00,
2013-03-02 00:38:00,33.4,26.0,29.69,NNE,32,3.0,8.0,74,0.00,,,0.00,0,weatherlink.com 1.10,2013-03-02 05:38:00,
2013-03-02 00:53:00,33.5,26.0,29.69,NNE,16,4.0,10.0,74,0.00,,,0.00,0,weatherlink.com 1.10,2013-03-02 05:53:00,
2013-03-02 01:09:00,33.6,26.0,29.69,North,360,4.0,12.0,74,0.00,,,0.00,0,weatherlink.com 1.10,2013-03-02 06:09:00,
2013-03-02 01:23:00,33.7,26.0,29.69,NNW,340,4.0,13.0,74,0.00,,,0.00,0,weatherlink.com 1.10,2013-03-02 06:23:00,
2013-03-02 01:38:00,33.6,26.0,29.68,North,5,6.0,11.0,75,0.00,,,0.00,0,weatherlink.com 1.10,2013-03-02 06:38:00,
2013-03-02 01:53:00,33.4,26.0,29.68,North,5,0.0,5.0,75,0.00,,,0.00,0,weatherlink.com 1.10,2013-03-02 06:53:00,
2013-03-02 02:08:00,33.2,26.0,29.68,NNE,24,0.0,7.0,75,0.00,,,0.00,0,weatherlink.com 1.10,2013-03-02 07:08:00,
2013-03-02 02:23:00,32.9,26.0,29.68,North,355,3.0,4.0,75,0.00,,,0.00,0,weatherlink.com 1.10,2013-03-02 07:23:00,
2013-03-02 02:38:00,32.9,26.0,29.68,NNE,13,3.0,4.0,76,0.00,,,0.00,0,weatherlink.com 1.10,2013-03-02 07:38:00,
2013-03-02 02:53:00,33.0,26.0,29.68,NNE,24,0.0,6.0,76,0.00,,,0.00,0,weatherlink.com 1.10,2013-03-02 07:53:00,
2013-03-02 03:08:00,33.3,27.0,29.68,North,5,1.0,5.0,76,0.00,,,0.00,0,weatherlink.com 1.10,2013-03-02 08:08:00,
2013-03-02 03:23:00,33.4,27.0,29.68,NE,34,1.0,13.0,76,0.00,,,0.00,0,weatherlink.com 1.10,2013-03-02 08:23:00,
2013-03-02 03:38:00,33.5,27.0,29.68,NNW,341,7.0,11.0,76,0.00,,,0.00,0,weatherlink.com 1.10,2013-03-02 08:38:00,
2013-03-02 03:53:00,33.6,27.0,29.68,North,350,6.0,11.0,76,0.00,,,0.00,0,weatherlink.com 1.10,2013-03-02 08:53:00,
2013-03-02 04:08:00,33.6,27.0,29.68,North,360,0.0,10.0,76,0.00,,,0.00,0,weatherlink.com 1.10,2013-03-02 09:08:00,
2013-03-02 04:23:00,33.7,27.0,29.67,NNE,26,3.0,13.0,75,0.00,,,0.00,0,weatherlink.com 1.10,2013-03-02 09:23:00,
2013-03-02 04:38:00,33.8,26.0,29.67,North,355,4.0,12.0,74,0.00,,,0.00,0,weatherlink.com 1.10,2013-03-02 09:38:00,
2013-03-02 04:53:00,33.8,26.0,29.67,NNW,336,3.0,15.0,74,0.00,,,0.00,0,weatherlink.com 1.10,2013-03-02 09:53:00,
2013-03-02 05:09:00,33.8,26.0,29.68,North,360,5.0,10.0,74,0.00,,,0.00,0,weatherlink.com 1.10,2013-03-02 10:09:00,
2013-03-02 05:23:00,33.8,27.0,29.67,NNE,25,4.0,11.0,75,0.00,,,0.00,0,weatherlink.com 1.10,2013-03-02 10:23:00,
2013-03-02 05:38:00,33.8,27.0,29.67,NNE,33,5.0,10.0,75,0.00,,,0.00,0,weatherlink.com 1.10,2013-03-02 10:38:00,
2013-03-02 05:53:00,33.8,27.0,29.67,NNW,328,9.0,9.0,75,0.00,,,0.00,0,weatherlink.com 1.10,2013-03-02 10:53:00,
2013-03-02 06:08:00,33.6,26.0,29.67,NE,42,4.0,12.0,75,0.00,,,0.00,0,weatherlink.com 1.10,2013-03-02 11:08:00,
2013-03-02 06:23:00,33.4,26.0,29.67,NE,36,4.0,9.0,75,0.00,,,0.00,0,weatherlink.com 1.10,2013-03-02 11:23:00,
2013-03-02 06:38:00,33.0,26.0,29.67,NE,42,2.0,8.0,75,0.00,,,0.00,12,weatherlink.com 1.10,2013-03-02 11:38:00,
2013-03-02 06:53:00,32.9,26.0,29.68,NNE,22,3.0,10.0,76,0.00,,,0.00,28,weatherlink.com 1.10,2013-03-02 11:53:00,
2013-03-02 07:08:00,32.9,26.0,29.68,NNE,23,0.0,7.0,76,0.00,,,0.00,33,weatherlink.com 1.10,2013-03-02 12:08:00,
2013-03-02 07:24:00,32.9,26.0,29.67,North,360,4.0,8.0,76,0.00,,,0.00,58,weatherlink.com 1.10,2013-03-02 12:24:00,
2013-03-02 07:39:00,33.5,26.0,29.68,NNE,15,0.0,4.0,75,0.00,,,0.00,95,weatherlink.com 1.10,2013-03-02 12:39:00,
2013-03-02 07:54:00,34.0,27.0,29.68,NNE,18,3.0,5.0,74,0.00,,,0.00,109,weatherlink.com 1.10,2013-03-02 12:54:00,
2013-03-02 08:09:00,35.0,27.0,29.68,NNE,28,8.0,8.0,72,0.00,,,0.00,144,weatherlink.com 1.10,2013-03-02 13:09:00,
2013-03-02 08:24:00,35.6,27.0,29.68,NW,320,3.0,9.0,71,0.00,,,0.00,200,weatherlink.com 1.10,2013-03-02 13:24:00,
2013-03-02 08:39:00,36.1,27.0,29.68,NE,38,8.0,11.0,69,0.00,,,0.00,197,weatherlink.com 1.10,2013-03-02 13:39:00,
2013-03-02 08:54:00,36.5,27.0,29.68,North,360,9.0,9.0,68,0.00,,,0.00,188,weatherlink.com 1.10,2013-03-02 13:54:00,
2013-03-02 09:09:00,36.6,27.0,29.67,North,5,2.0,7.0,68,0.00,,,0.00,174,weatherlink.com 1.10,2013-03-02 14:09:00,
2013-03-02 09:24:00,36.9,27.0,29.68,NNW,340,1.0,13.0,68,0.00,,,0.00,156,weatherlink.com 1.10,2013-03-02 14:24:00,
2013-03-02 09:39:00,36.7,27.0,29.67,NW,323,4.0,10.0,68,0.00,,,0.00,153,weatherlink.com 1.10,2013-03-02 14:39:00,
2013-03-02 09:54:00,36.8,27.0,29.68,NNW,338,5.0,13.0,67,0.00,,,0.00,151,weatherlink.com 1.10,2013-03-02 14:54:00,
2013-03-02 10:09:00,37.0,27.0,29.68,North,349,8.0,14.0,66,0.00,,,0.00,186,weatherlink.com 1.10,2013-03-02 15:09:00,
2013-03-02 10:24:00,37.2,27.0,29.68,North,360,6.0,13.0,66,0.00,,,0.00,241,weatherlink.com 1.10,2013-03-02 15:24:00,
2013-03-02 10:39:00,37.5,27.0,29.68,North,360,5.0,11.0,66,0.00,,,0.00,216,weatherlink.com 1.10,2013-03-02 15:39:00,
2013-03-02 10:54:00,37.4,27.0,29.67,North,5,9.0,13.0,66,0.00,,,0.00,241,weatherlink.com 1.10,2013-03-02 15:54:00,
2013-03-02 11:09:00,37.4,27.0,29.67,North,355,4.0,15.0,67,0.00,,,0.00,234,weatherlink.com 1.10,2013-03-02 16:09:00,
2013-03-02 11:24:00,37.5,27.0,29.67,North,360,7.0,13.0,67,0.00,,,0.00,287,weatherlink.com 1.10,2013-03-02 16:24:00,
2013-03-02 11:39:00,37.5,28.0,29.66,North,360,8.0,11.0,69,0.00,,,0.00,297,weatherlink.com 1.10,2013-03-02 16:39:00,
2013-03-02 11:54:00,38.0,29.0,29.66,NNW,331,3.0,12.0,69,0.00,,,0.00,287,weatherlink.com 1.10,2013-03-02 16:54:00,
2013-03-02 12:09:00,38.3,28.0,29.66,NE,48,7.0,13.0,67,0.00,,,0.00,315,weatherlink.com 1.10,2013-03-02 17:09:00,
2013-03-02 12:25:00,38.4,27.0,29.65,NE,45,5.0,10.0,65,0.00,,,0.00,292,weatherlink.com 1.10,2013-03-02 17:25:00,
2013-03-02 12:39:00,38.0,28.0,29.65,North,5,9.0,16.0,67,0.00,,,0.00,271,weatherlink.com 1.10,2013-03-02 17:39:00,
2013-03-02 12:54:00,38.1,28.0,29.64,NE,50,9.0,16.0,66,0.00,,,0.00,283,weatherlink.com 1.10,2013-03-02 17:54:00,
2013-03-02 13:09:00,38.3,28.0,29.64,ENE,60,12.0,12.0,66,0.00,,,0.00,301,weatherlink.com 1.10,2013-03-02 18:09:00,
2013-03-02 13:24:00,38.3,28.0,29.64,NE,41,7.0,16.0,66,0.00,,,0.00,262,weatherlink.com 1.10,2013-03-02 18:24:00,
2013-03-02 13:39:00,38.3,27.0,29.64,NE,52,9.0,14.0,65,0.00,,,0.00,225,weatherlink.com 1.10,2013-03-02 18:39:00,
2013-03-02 13:54:00,38.3,27.0,29.63,NE,43,5.0,15.0,65,0.00,,,0.00,213,weatherlink.com 1.10,2013-03-02 18:54:00,
2013-03-02 14:09:00,38.0,28.0,29.64,NE,50,7.0,14.0,68,0.00,,,0.00,204,weatherlink.com 1.10,2013-03-02 19:09:00,
2013-03-02 14:24:00,38.1,28.0,29.64,NE,40,8.0,14.0,67,0.00,,,0.00,257,weatherlink.com 1.10,2013-03-02 19:24:00,
2013-03-02 14:39:00,38.0,28.0,29.64,North,5,5.0,16.0,67,0.00,,,0.00,248,weatherlink.com 1.10,2013-03-02 19:39:00,
2013-03-02 14:54:00,38.1,28.0,29.64,NNE,32,9.0,13.0,68,0.00,,,0.00,287,weatherlink.com 1.10,2013-03-02 19:54:00,
2013-03-02 15:09:00,38.1,28.0,29.64,NNE,25,9.0,18.0,68,0.00,,,0.00,345,weatherlink.com 1.10,2013-03-02 20:09:00,
2013-03-02 15:24:00,37.5,29.0,29.64,NNE,18,9.0,14.0,71,0.00,,,0.00,301,weatherlink.com 1.10,2013-03-02 20:24:00,
2013-03-02 15:39:00,36.7,29.0,29.64,NNW,331,2.0,9.0,75,0.00,,,0.00,137,weatherlink.com 1.10,2013-03-02 20:39:00,
2013-03-02 15:54:00,36.4,30.0,29.64,NW,304,4.0,10.0,77,0.00,,,0.00,151,weatherlink.com 1.10,2013-03-02 20:54:00,
2013-03-02 16:09:00,36.4,29.0,29.64,North,355,5.0,11.0,75,0.00,,,0.00,156,weatherlink.com 1.10,2013-03-02 21:09:00,
2013-03-02 16:24:00,36.3,29.0,29.64,NNW,339,2.0,7.0,74,0.00,,,0.00,137,weatherlink.com 1.10,2013-03-02 21:24:00,
2013-03-02 16:39:00,36.4,28.0,29.65,NNE,12,9.0,13.0,72,0.00,,,0.00,104,weatherlink.com 1.10,2013-03-02 21:39:00,
2013-03-02 16:54:00,35.6,27.0,29.65,North,360,4.0,15.0,72,0.00,,,0.00,49,weatherlink.com 1.10,2013-03-02 21:54:00,
2013-03-02 17:09:00,35.2,27.0,29.66,NNW,330,6.0,10.0,73,0.00,,,0.00,47,weatherlink.com 1.10,2013-03-02 22:09:00,
2013-03-02 17:24:00,34.6,27.0,29.66,NNE,19,6.0,13.0,74,0.00,,,0.00,16,weatherlink.com 1.10,2013-03-02 22:24:00,
2013-03-02 17:39:00,34.0,27.0,29.67,NNW,342,3.0,15.0,74,0.00,,,0.00,0,weatherlink.com 1.10,2013-03-02 22:39:00,
2013-03-02 17:54:00,33.6,26.0,29.67,NNW,334,4.0,11.0,75,0.00,,,0.00,0,weatherlink.com 1.10,2013-03-02 22:54:00,
2013-03-02 18:09:00,33.1,26.0,29.68,NNE,32,3.0,10.0,76,0.00,,,0.00,0,weatherlink.com 1.10,2013-03-02 23:09:00,
2013-03-02 18:24:00,32.8,26.0,29.68,North,360,2.0,9.0,76,0.00,,,0.00,0,weatherlink.com 1.10,2013-03-02 23:24:00,
2013-03-02 18:39:00,32.5,26.0,29.68,NNE,33,4.0,7.0,76,0.00,,,0.00,0,weatherlink.com 1.10,2013-03-02 23:39:00,
2013-03-02 18:54:00,32.3,26.0,29.68,NNE,14,3.0,7.0,77,0.00,,,0.00,0,weatherlink.com 1.10,2013-03-02 23:54:00,
2013-03-02 19:09:00,32.3,26.0,29.68,NNE,13,3.0,7.0,77,0.00,,,0.00,0,weatherlink.com 1.10,2013-03-03 00:09:00,
2013-03-02 19:25:00,32.2,25.0,29.68,NNE,22,1.0,9.0,75,0.00,,,0.00,0,weatherlink.com 1.10,2013-03-03 00:25:00,
2013-03-02 19:42:00,32.2,25.0,29.68,North,11,2.0,6.0,75,0.00,,,0.00,0,weatherlink.com 1.10,2013-03-03 00:42:00,
2013-03-02 19:55:00,32.3,25.0,29.68,NNE,27,2.0,7.0,74,0.00,,,0.00,0,weatherlink.com 1.10,2013-03-03 00:55:00,
2013-03-02 20:10:00,32.4,25.0,29.69,North,11,5.0,10.0,73,0.00,,,0.00,0,weatherlink.com 1.10,2013-03-03 01:10:00,
2013-03-02 20:25:00,32.4,25.0,29.69,NNE,28,1.0,6.0,73,0.00,,,0.00,0,weatherlink.com 1.10,2013-03-03 01:25:00,
2013-03-02 20:40:00,32.4,25.0,29.69,North,10,2.0,8.0,73,0.00,,,0.00,0,weatherlink.com 1.10,2013-03-03 01:40:00,
2013-03-02 20:55:00,32.3,25.0,29.70,NNE,30,5.0,8.0,73,0.00,,,0.00,0,weatherlink.com 1.10,2013-03-03 01:55:00,
2013-03-02 21:10:00,32.2,24.0,29.70,NNE,13,3.0,6.0,73,0.00,,,0.00,0,weatherlink.com 1.10,2013-03-03 02:10:00,
2013-03-02 21:25:00,32.0,24.0,29.69,NNE,18,1.0,9.0,73,0.00,,,0.00,0,weatherlink.com 1.10,2013-03-03 02:25:00,
2013-03-02 21:40:00,31.8,24.0,29.69,NE,34,3.0,6.0,74,0.00,,,0.00,0,weatherlink.com 1.10,2013-03-03 02:40:00,
2013-03-02 21:55:00,31.6,24.0,29.69,NNE,17,6.0,8.0,74,0.00,,,0.00,0,weatherlink.com 1.10,2013-03-03 02:55:00,
2013-03-02 22:10:00,31.5,24.0,29.68,NNW,346,7.0,11.0,74,0.00,,,0.00,0,weatherlink.com 1.10,2013-03-03 03:10:00,
2013-03-02 22:25:00,31.2,24.0,29.68,North,360,3.0,7.0,74,0.00,,,0.00,0,weatherlink.com 1.10,2013-03-03 03:25:00,
2013-03-02 22:40:00,31.0,24.0,29.68,NNE,30,2.0,7.0,75,0.00,,,0.00,0,weatherlink.com 1.10,2013-03-03 03:40:00,
2013-03-02 22:55:00,30.8,24.0,29.68,NNE,30,3.0,9.0,75,0.00,,,0.00,0,weatherlink.com 1.10,2013-03-03 03:55:00,
2013-03-02 23:10:00,30.8,23.0,29.68,NNE,26,2.0,6.0,74,0.00,,,0.00,0,weatherlink.com 1.10,2013-03-03 04:10:00,
2013-03-02 23:25:00,30.7,24.0,29.67,NNE,26,7.0,8.0,75,0.00,,,0.00,0,weatherlink.com 1.10,2013-03-03 04:25:00,
2013-03-02 23:40:00,30.5,24.0,29.66,NNE,24,6.0,9.0,76,0.00,,,0.00,0,weatherlink.com 1.10,2013-03-03 04:40:00,
2013-03-02 23:55:00,30.1,23.0,29.66,North,360,4.0,10.0,76,0.00,,,0.00,0,weatherlink.com 1.10,2013-03-03 04:55:00,